createdAt,value
2019-04-04T00:01:27.567Z,8.97
2019-04-04T00:03:56.240Z,8.97
2019-04-04T00:06:26.948Z,8.66
2019-04-04T00:08:55.452Z,8.57
2019-04-04T00:11:24.188Z,8.36
2019-04-04T00:13:52.859Z,8.55
2019-04-04T00:16:21.411Z,8.71
2019-04-04T00:18:50.071Z,8.74
2019-04-04T00:21:18.645Z,8.26
2019-04-04T00:23:47.995Z,8.37
2019-04-04T00:26:16.741Z,8.73
2019-04-04T00:28:46.064Z,8.27
2019-04-04T00:31:15.301Z,8.03
2019-04-04T00:33:43.958Z,7.95
2019-04-04T00:36:12.633Z,8.17
2019-04-04T00:38:41.654Z,8.66
2019-04-04T00:41:11.040Z,8.19
2019-04-04T00:43:40.933Z,8.02
2019-04-04T00:46:09.622Z,8.06
2019-04-04T00:48:38.259Z,8.05
2019-04-04T00:51:08.050Z,7.95
2019-04-04T00:53:37.231Z,7.72
2019-04-04T00:56:05.843Z,7.73
2019-04-04T00:58:34.474Z,7.47
2019-04-04T01:01:03.540Z,7.31
2019-04-04T01:03:32.162Z,7.44
2019-04-04T01:06:02.833Z,7.38
2019-04-04T01:08:31.430Z,7.53
2019-04-04T01:11:00.073Z,7.53
2019-04-04T01:13:28.595Z,7.15
2019-04-04T01:15:57.258Z,7.48
2019-04-04T01:18:25.914Z,7.30
2019-04-04T01:20:54.574Z,7.55
2019-04-04T01:23:23.248Z,7.50
2019-04-04T01:25:51.918Z,7.50
2019-04-04T01:28:20.667Z,7.21
2019-04-04T01:30:49.301Z,7.16
2019-04-04T01:33:19.738Z,7.37
2019-04-04T01:35:48.406Z,6.95
2019-04-04T01:38:17.147Z,6.48
2019-04-04T01:40:45.786Z,6.39
2019-04-04T01:43:14.418Z,6.51
2019-04-04T01:45:44.171Z,6.33
2019-04-04T01:48:13.652Z,6.15
2019-04-04T01:50:42.338Z,6.20
2019-04-04T01:53:11.007Z,6.14
2019-04-04T01:55:40.540Z,6.65
2019-04-04T01:58:10.003Z,6.42
2019-04-04T02:00:39.361Z,6.02
2019-04-04T02:03:08.063Z,6.28
2019-04-04T02:05:36.612Z,6.26
2019-04-04T02:08:05.378Z,6.04
2019-04-04T02:10:35.296Z,5.93
2019-04-04T02:13:04.096Z,6.35
2019-04-04T02:15:32.827Z,6.05
2019-04-04T02:18:01.514Z,5.96
2019-04-04T02:20:30.072Z,6.05
2019-04-04T02:23:01.167Z,5.64
2019-04-04T02:25:29.279Z,5.56
2019-04-04T02:27:58.489Z,5.79
2019-04-04T02:30:27.541Z,6.00
2019-04-04T02:32:59.445Z,5.80
2019-04-04T02:35:26.855Z,5.92
2019-04-04T02:37:56.185Z,5.91
2019-04-04T02:40:24.954Z,5.79
2019-04-04T02:42:55.271Z,5.48
2019-04-04T02:45:25.134Z,5.88
2019-04-04T02:47:53.685Z,5.84
2019-04-04T02:50:22.341Z,5.35
2019-04-04T02:52:50.893Z,6.00
2019-04-04T02:55:19.622Z,5.89
2019-04-04T02:57:48.145Z,5.60
2019-04-04T03:00:17.035Z,5.25
2019-04-04T03:02:45.725Z,5.21
2019-04-04T03:05:18.757Z,4.99
2019-04-04T03:07:44.817Z,5.02
2019-04-04T03:10:16.341Z,5.06
2019-04-04T03:12:44.156Z,4.99
2019-04-04T03:15:12.784Z,4.79
2019-04-04T03:17:41.268Z,5.04
2019-04-04T03:20:09.793Z,5.30
2019-04-04T03:22:38.461Z,5.40
2019-04-04T03:25:07.123Z,5.11
2019-04-04T03:27:35.939Z,4.91
2019-04-04T03:30:05.238Z,5.07
2019-04-04T03:32:33.882Z,5.06
2019-04-04T03:35:02.600Z,4.73
2019-04-04T03:37:31.421Z,5.23
2019-04-04T03:40:00.092Z,5.44
2019-04-04T03:42:28.656Z,5.30
2019-04-04T03:44:57.309Z,4.98
2019-04-04T03:47:25.952Z,4.98
2019-04-04T03:49:57.715Z,5.64
2019-04-04T03:52:25.024Z,5.54
2019-04-04T03:54:56.321Z,5.33
2019-04-04T03:57:24.308Z,5.20
2019-04-04T03:59:52.964Z,5.07
2019-04-04T04:02:21.614Z,4.95
2019-04-04T04:04:50.265Z,4.70
2019-04-04T04:07:18.888Z,4.84
2019-04-04T04:09:47.432Z,4.94
2019-04-04T04:12:16.067Z,5.23
2019-04-04T04:14:44.608Z,5.57
2019-04-04T04:17:13.261Z,4.72
2019-04-04T04:19:41.876Z,5.02
2019-04-04T04:22:12.963Z,5.29
2019-04-04T04:24:40.995Z,5.04
2019-04-04T04:27:14.416Z,5.11
2019-04-04T04:29:40.288Z,4.66
2019-04-04T04:32:09.130Z,4.78
2019-04-04T04:34:37.682Z,4.56
2019-04-04T04:37:06.419Z,4.62
2019-04-04T04:39:40.779Z,4.59
2019-04-04T04:42:05.528Z,4.68
2019-04-04T04:44:37.770Z,4.48
2019-04-04T04:47:04.671Z,4.73
2019-04-04T04:49:35.642Z,4.58
2019-04-04T04:52:03.871Z,4.32
2019-04-04T04:54:32.512Z,4.46
2019-04-04T04:57:03.531Z,4.79
2019-04-04T04:59:31.832Z,4.68
2019-04-04T05:02:00.379Z,5.03
2019-04-04T05:04:29.155Z,4.76
2019-04-04T05:06:57.899Z,4.90
2019-04-04T05:09:26.459Z,4.50
2019-04-04T05:11:54.998Z,4.74
2019-04-04T05:14:23.630Z,4.66
2019-04-04T05:16:52.183Z,4.91
2019-04-04T05:19:20.934Z,4.89
2019-04-04T05:21:49.631Z,4.78
2019-04-04T05:24:18.764Z,5.07
2019-04-04T05:26:47.543Z,5.21
2019-04-04T05:29:16.230Z,5.36
2019-04-04T05:31:44.878Z,5.38
2019-04-04T05:34:13.570Z,5.67
2019-04-04T05:36:42.115Z,5.80
2019-04-04T05:39:10.874Z,5.67
2019-04-04T05:41:39.481Z,5.92
2019-04-04T05:44:09.956Z,5.67
2019-04-04T05:46:38.585Z,5.72
2019-04-04T05:49:08.272Z,6.17
2019-04-04T05:51:37.133Z,6.27
2019-04-04T05:54:07.502Z,6.08
2019-04-04T05:56:36.364Z,6.43
2019-04-04T05:59:05.033Z,6.62
2019-04-04T06:01:35.309Z,7.01
2019-04-04T06:04:04.343Z,7.44
2019-04-04T06:06:33.405Z,7.49
2019-04-04T06:09:05.052Z,7.09
2019-04-04T06:11:33.723Z,7.52
2019-04-04T06:14:02.388Z,7.78
2019-04-04T06:16:31.032Z,7.67
2019-04-04T06:18:59.711Z,7.40
2019-04-04T06:21:28.387Z,7.74
2019-04-04T06:23:57.201Z,8.34
2019-04-04T06:26:25.851Z,8.14
2019-04-04T06:28:54.402Z,8.06
2019-04-04T06:31:26.273Z,8.16
2019-04-04T06:33:53.654Z,8.41
2019-04-04T06:36:22.242Z,8.18
2019-04-04T06:38:52.214Z,8.61
2019-04-04T06:41:21.674Z,9.14
2019-04-04T06:43:50.276Z,8.63
2019-04-04T06:46:22.608Z,8.74
2019-04-04T06:48:50.048Z,8.43
2019-04-04T06:51:18.656Z,8.89
2019-04-04T06:53:47.463Z,9.01
2019-04-04T06:56:16.227Z,8.96
2019-04-04T06:58:44.914Z,9.15
2019-04-04T07:01:13.543Z,9.18
2019-04-04T07:03:42.287Z,9.24
2019-04-04T07:06:11.002Z,9.51
2019-04-04T07:08:39.750Z,9.43
2019-04-04T07:11:21.097Z,9.06
2019-04-04T07:13:42.717Z,9.18
2019-04-04T07:16:09.618Z,9.43
2019-04-04T07:18:38.269Z,9.49
2019-04-04T07:21:06.871Z,9.64
2019-04-04T07:23:35.661Z,9.90
2019-04-04T07:26:04.575Z,10.14
2019-04-04T07:28:33.223Z,10.42
2019-04-04T07:31:02.546Z,10.51
2019-04-04T07:33:31.445Z,10.34
2019-04-04T07:36:00.124Z,10.19
2019-04-04T07:38:29.390Z,10.23
2019-04-04T07:40:58.310Z,10.59
2019-04-04T07:43:27.118Z,10.33
2019-04-04T07:45:59.754Z,10.50
2019-04-04T07:48:28.490Z,10.78
2019-04-04T07:50:58.484Z,10.84
2019-04-04T07:53:28.390Z,11.94
2019-04-04T07:55:57.187Z,10.86
2019-04-04T07:58:25.898Z,11.60
2019-04-04T08:00:54.850Z,10.99
2019-04-04T08:03:23.684Z,10.87
2019-04-04T08:05:52.570Z,11.19
2019-04-04T08:08:21.135Z,10.98
2019-04-04T08:10:49.772Z,11.35
2019-04-04T08:13:18.447Z,11.24
2019-04-04T08:15:47.043Z,11.43
2019-04-04T08:18:15.719Z,11.45
2019-04-04T08:20:44.304Z,11.62
2019-04-04T08:23:13.106Z,11.25
2019-04-04T08:25:41.663Z,11.21
2019-04-04T08:28:10.237Z,11.14
2019-04-04T08:30:38.893Z,11.33
2019-04-04T08:33:07.667Z,11.54
2019-04-04T08:35:36.406Z,11.38
2019-04-04T08:38:05.167Z,11.53
2019-04-04T08:40:33.881Z,11.81
2019-04-04T08:43:02.647Z,12.05
2019-04-04T08:45:31.355Z,11.73
2019-04-04T08:48:00.019Z,11.90
2019-04-04T08:50:28.675Z,11.58
2019-04-04T08:52:57.319Z,11.78
2019-04-04T08:55:25.971Z,12.05
2019-04-04T08:57:54.634Z,12.22
2019-04-04T09:00:23.319Z,12.21
2019-04-04T09:02:51.964Z,11.74
2019-04-04T09:05:20.655Z,12.01
2019-04-04T09:07:49.341Z,11.99
2019-04-04T09:10:18.527Z,11.86
2019-04-04T09:12:47.129Z,12.13
2019-04-04T09:15:16.101Z,12.03
2019-04-04T09:17:45.081Z,11.80
2019-04-04T09:20:14.004Z,11.77
2019-04-04T09:22:42.889Z,11.62
2019-04-04T09:25:12.146Z,11.82
2019-04-04T09:27:40.909Z,12.01
2019-04-04T09:30:10.250Z,12.04
2019-04-04T09:32:39.111Z,12.10
2019-04-04T09:35:08.164Z,12.12
2019-04-04T09:37:36.894Z,12.00
2019-04-04T09:40:06.193Z,11.81
2019-04-04T09:42:34.938Z,12.00
2019-04-04T09:45:04.495Z,11.89
2019-04-04T09:47:33.147Z,12.34
2019-04-04T09:50:01.682Z,12.64
2019-04-04T09:52:30.546Z,12.36
2019-04-04T09:54:59.303Z,12.60
2019-04-04T09:57:27.874Z,12.75
2019-04-04T09:59:56.546Z,12.74
2019-04-04T10:02:25.172Z,12.80
2019-04-04T10:04:53.759Z,13.05
2019-04-04T10:07:25.083Z,13.11
2019-04-04T10:09:52.994Z,13.40
2019-04-04T10:12:21.652Z,13.58
2019-04-04T10:14:50.529Z,13.66
2019-04-04T10:17:19.200Z,13.59
2019-04-04T10:19:47.951Z,13.76
2019-04-04T10:22:16.634Z,14.11
2019-04-04T10:24:45.178Z,14.15
2019-04-04T10:27:13.842Z,14.49
2019-04-04T10:29:42.621Z,14.37
2019-04-04T10:32:11.373Z,14.45
2019-04-04T10:34:40.055Z,14.42
2019-04-04T10:37:08.737Z,14.34
2019-04-04T10:39:37.527Z,14.59
2019-04-04T10:42:06.203Z,14.42
2019-04-04T10:44:37.055Z,14.48
2019-04-04T10:47:05.442Z,14.52
2019-04-04T10:49:34.112Z,14.30
2019-04-04T10:52:02.790Z,14.80
2019-04-04T10:54:31.542Z,15.26
2019-04-04T10:57:00.292Z,15.02
2019-04-04T10:59:28.982Z,14.90
2019-04-04T11:02:00.739Z,15.07
2019-04-04T11:04:28.016Z,15.11
2019-04-04T11:06:56.674Z,15.13
2019-04-04T11:09:25.326Z,14.75
2019-04-04T11:11:54.076Z,15.69
2019-04-04T11:14:25.088Z,15.37
2019-04-04T11:16:53.231Z,15.00
2019-04-04T11:19:31.188Z,15.28
2019-04-04T11:21:52.255Z,15.06
2019-04-04T11:24:20.915Z,17.11
2019-04-04T11:26:49.554Z,17.02
2019-04-04T11:29:18.244Z,16.56
2019-04-04T11:31:46.915Z,15.75
2019-04-04T11:34:15.507Z,15.48
2019-04-04T11:36:44.272Z,15.81
2019-04-04T11:39:13.021Z,15.61
2019-04-04T11:41:41.696Z,15.56
2019-04-04T11:44:10.398Z,15.46
2019-04-04T11:46:39.171Z,15.35
2019-04-04T11:49:08.234Z,15.34
2019-04-04T11:51:36.896Z,15.59
2019-04-04T11:54:05.520Z,15.51
2019-04-04T11:56:34.170Z,15.42
2019-04-04T11:59:03.036Z,15.58
2019-04-04T12:01:32.776Z,15.42
2019-04-04T12:04:01.633Z,14.91
2019-04-04T12:06:30.392Z,14.97
2019-04-04T12:08:59.248Z,15.02
2019-04-04T12:11:27.942Z,15.36
2019-04-04T12:13:56.910Z,15.58
2019-04-04T12:16:25.545Z,15.56
2019-04-04T12:18:54.206Z,15.67
2019-04-04T12:21:22.851Z,15.92
2019-04-04T12:23:51.741Z,15.72
2019-04-04T12:26:20.462Z,15.39
2019-04-04T12:28:49.037Z,15.53
2019-04-04T12:31:17.675Z,15.86
2019-04-04T12:33:48.892Z,15.94
2019-04-04T12:36:24.769Z,15.68
2019-04-04T12:38:54.026Z,15.75
2019-04-04T12:41:22.623Z,15.86
2019-04-04T12:43:51.616Z,15.89
2019-04-04T12:46:20.714Z,15.98
2019-04-04T12:48:49.325Z,16.09
2019-04-04T12:51:20.313Z,16.07
2019-04-04T12:53:51.129Z,15.77
2019-04-04T12:56:19.728Z,15.60
2019-04-04T12:58:51.082Z,15.82
2019-04-04T13:01:21.430Z,15.90
2019-04-04T13:03:52.961Z,16.07
2019-04-04T13:06:22.794Z,16.06
2019-04-04T13:08:51.217Z,15.90
2019-04-04T13:11:22.078Z,15.90
2019-04-04T13:13:51.839Z,15.90
2019-04-04T13:16:21.678Z,16.27
2019-04-04T13:18:51.375Z,16.59
2019-04-04T13:21:21.622Z,16.52
2019-04-04T13:23:50.641Z,16.38
2019-04-04T13:26:19.557Z,16.38
2019-04-04T13:28:48.249Z,16.17
2019-04-04T13:31:17.274Z,16.28
2019-04-04T13:33:46.080Z,16.75
2019-04-04T13:36:15.297Z,17.14
2019-04-04T13:38:43.966Z,17.41
2019-04-04T13:41:21.805Z,16.86
2019-04-04T13:43:43.306Z,17.31
2019-04-04T13:46:11.964Z,17.04
2019-04-04T13:48:43.114Z,17.29
2019-04-04T13:51:11.310Z,18.68
2019-04-04T13:53:41.534Z,18.89
2019-04-04T13:56:10.280Z,19.57
2019-04-04T13:58:39.236Z,19.51
2019-04-04T14:01:08.037Z,19.62
2019-04-04T14:03:36.644Z,19.76
2019-04-04T14:06:05.401Z,19.53
2019-04-04T14:08:34.805Z,19.42
2019-04-04T14:11:03.542Z,19.83
2019-04-04T14:13:32.683Z,18.81
2019-04-04T14:16:01.380Z,18.28
2019-04-04T14:18:39.817Z,18.36
2019-04-04T14:21:04.860Z,18.20
2019-04-04T14:23:33.633Z,17.66
2019-04-04T14:26:02.508Z,17.41
2019-04-04T14:28:31.509Z,17.65
2019-04-04T14:31:00.358Z,17.19
2019-04-04T14:33:29.102Z,16.92
2019-04-04T14:35:57.906Z,16.64
2019-04-04T14:38:26.794Z,16.39
2019-04-04T14:40:55.431Z,16.55
2019-04-04T14:43:24.094Z,16.46
2019-04-04T14:45:52.650Z,16.53
2019-04-04T14:48:21.566Z,16.31
2019-04-04T14:50:50.334Z,16.10
2019-04-04T14:53:19.420Z,16.30
2019-04-04T14:55:48.196Z,16.26
2019-04-04T14:58:17.367Z,16.20
2019-04-04T15:00:46.153Z,16.14
2019-04-04T15:03:15.103Z,16.23
2019-04-04T15:05:43.958Z,16.13
2019-04-04T15:08:12.818Z,16.00
2019-04-04T15:10:41.561Z,16.10
2019-04-04T15:13:10.565Z,16.06
2019-04-04T15:16:01.491Z,16.03
2019-04-04T15:18:30.595Z,15.84
2019-04-04T15:20:59.453Z,15.90
2019-04-04T15:23:28.308Z,15.94
2019-04-04T15:25:57.167Z,15.87
2019-04-04T15:28:26.897Z,15.82
2019-04-04T15:30:56.446Z,15.81
2019-04-04T15:33:26.021Z,15.70
2019-04-04T15:35:54.952Z,15.86
2019-04-04T15:38:24.153Z,15.82
2019-04-04T15:40:52.915Z,15.79
2019-04-04T15:43:21.643Z,15.80
2019-04-04T15:45:50.516Z,15.63
2019-04-04T15:48:19.164Z,15.66
2019-04-04T15:50:48.013Z,15.63
2019-04-04T15:53:16.903Z,15.61
2019-04-04T15:55:45.462Z,15.55
2019-04-04T15:58:14.096Z,15.55
2019-04-04T16:00:43.013Z,15.50
2019-04-04T16:03:11.781Z,15.43
2019-04-04T16:05:40.968Z,15.55
2019-04-04T16:08:09.732Z,15.43
2019-04-04T16:10:38.558Z,15.40
2019-04-04T16:13:07.325Z,15.35
2019-04-04T16:15:35.977Z,15.26
2019-04-04T16:18:04.964Z,15.23
2019-04-04T16:20:33.923Z,15.32
2019-04-04T16:23:02.685Z,15.35
2019-04-04T16:25:31.675Z,15.07
2019-04-04T16:28:00.425Z,15.37
2019-04-04T16:30:29.007Z,15.53
2019-04-04T16:32:57.726Z,15.50
2019-04-04T16:35:26.667Z,15.39
2019-04-04T16:37:55.938Z,15.38
2019-04-04T16:40:24.881Z,15.24
2019-04-04T16:42:53.932Z,15.29
2019-04-04T16:45:22.894Z,15.11
2019-04-04T16:47:51.784Z,15.16
2019-04-04T16:50:20.790Z,14.75
2019-04-04T16:52:49.867Z,15.02
2019-04-04T16:55:18.602Z,15.18
2019-04-04T16:57:47.499Z,14.61
2019-04-04T17:00:20.640Z,14.51
2019-04-04T17:02:48.382Z,14.27
2019-04-04T17:05:17.289Z,14.65
2019-04-04T17:07:46.411Z,14.69
2019-04-04T17:10:17.589Z,14.46
2019-04-04T17:12:46.243Z,14.49
2019-04-04T17:15:15.142Z,14.29
2019-04-04T17:17:43.999Z,14.67
2019-04-04T17:20:13.676Z,14.36
2019-04-04T17:22:42.418Z,14.09
2019-04-04T17:25:11.194Z,13.83
2019-04-04T17:27:40.369Z,14.03
2019-04-04T17:30:09.761Z,14.06
2019-04-04T17:32:39.926Z,14.02
2019-04-04T17:35:09.630Z,14.15
2019-04-04T17:37:38.154Z,14.13
2019-04-04T17:40:07.359Z,13.86
2019-04-04T17:42:35.816Z,13.89
2019-04-04T17:45:05.861Z,13.88
2019-04-04T17:47:35.080Z,13.85
2019-04-04T17:50:05.301Z,13.80
2019-04-04T17:52:34.728Z,13.71
2019-04-04T17:55:04.276Z,13.83
2019-04-04T17:57:32.861Z,13.84
2019-04-04T18:00:01.505Z,13.70
2019-04-04T18:02:30.160Z,13.63
2019-04-04T18:04:58.951Z,13.30
2019-04-04T18:07:28.006Z,13.59
2019-04-04T18:09:56.977Z,13.22
2019-04-04T18:12:25.928Z,13.26
2019-04-04T18:14:56.630Z,13.28
2019-04-04T18:17:25.397Z,13.26
2019-04-04T18:19:54.259Z,13.17
2019-04-04T18:22:22.945Z,13.33
2019-04-04T18:24:51.913Z,13.33
2019-04-04T18:27:20.798Z,13.39
2019-04-04T18:29:49.544Z,13.40
2019-04-04T18:32:18.308Z,13.26
2019-04-04T18:34:47.537Z,13.18
2019-04-04T18:37:16.399Z,13.08
2019-04-04T18:39:45.784Z,13.27
2019-04-04T18:42:14.490Z,13.19
2019-04-04T18:44:43.140Z,13.14
2019-04-04T18:47:11.935Z,12.96
2019-04-04T18:49:40.691Z,12.88
2019-04-04T18:52:09.459Z,12.91
2019-04-04T18:54:38.306Z,12.85
2019-04-04T18:57:07.515Z,12.97
2019-04-04T18:59:36.355Z,13.10
2019-04-04T19:02:05.292Z,13.11
2019-04-04T19:04:33.970Z,13.04
2019-04-04T19:07:03.258Z,13.14
2019-04-04T19:09:31.992Z,12.98
2019-04-04T19:12:00.931Z,12.93
2019-04-04T19:14:29.761Z,12.90
2019-04-04T19:16:58.506Z,12.72
2019-04-04T19:19:27.067Z,12.63
2019-04-04T19:21:57.292Z,12.63
2019-04-04T19:24:26.135Z,12.45
2019-04-04T19:26:54.796Z,12.37
2019-04-04T19:29:23.984Z,12.59
2019-04-04T19:31:52.650Z,12.71
2019-04-04T19:34:21.670Z,12.52
2019-04-04T19:36:50.370Z,12.73
2019-04-04T19:39:19.801Z,12.66
2019-04-04T19:41:49.146Z,12.82
2019-04-04T19:44:18.091Z,12.39
2019-04-04T19:46:46.676Z,12.51
2019-04-04T19:49:15.625Z,12.15
2019-04-04T19:51:44.981Z,12.42
2019-04-04T19:54:13.798Z,12.14
2019-04-04T19:56:42.572Z,11.95
2019-04-04T19:59:11.438Z,12.06
2019-04-04T20:01:40.437Z,12.41
2019-04-04T20:04:09.527Z,12.17
2019-04-04T20:06:38.173Z,11.85
2019-04-04T20:09:06.997Z,11.89
2019-04-04T20:11:36.171Z,11.98
2019-04-04T20:14:04.933Z,11.95
2019-04-04T20:16:33.575Z,12.08
2019-04-04T20:19:02.243Z,12.28
2019-04-04T20:21:30.983Z,11.94
2019-04-04T20:24:00.538Z,11.78
2019-04-04T20:26:29.423Z,12.01
2019-04-04T20:28:58.271Z,12.11
2019-04-04T20:31:27.130Z,12.08
2019-04-04T20:34:01.904Z,11.78
2019-04-04T20:36:26.763Z,11.72
2019-04-04T20:38:55.503Z,11.85
2019-04-04T20:41:24.078Z,11.85
2019-04-04T20:43:52.853Z,11.47
2019-04-04T20:46:21.753Z,11.31
2019-04-04T20:48:51.285Z,11.17
2019-04-04T20:51:20.331Z,11.21
2019-04-04T20:53:49.220Z,11.28
2019-04-04T20:56:18.179Z,11.31
2019-04-04T20:58:47.020Z,11.04
2019-04-04T21:01:15.947Z,11.00
2019-04-04T21:03:44.729Z,10.93
2019-04-04T21:06:13.724Z,11.10
2019-04-04T21:08:42.476Z,10.81
2019-04-04T21:11:11.322Z,10.89
2019-04-04T21:13:39.987Z,10.56
2019-04-04T21:16:08.658Z,10.60
2019-04-04T21:18:37.561Z,10.57
2019-04-04T21:21:06.256Z,10.42
2019-04-04T21:23:35.303Z,10.29
2019-04-04T21:26:03.927Z,10.66
2019-04-04T21:28:32.701Z,10.58
2019-04-04T21:31:01.347Z,10.46
2019-04-04T21:33:30.102Z,10.75
2019-04-04T21:35:58.846Z,10.37
2019-04-04T21:38:27.499Z,10.01
2019-04-04T21:40:56.135Z,10.08
2019-04-04T21:43:24.887Z,10.38
2019-04-04T21:45:53.537Z,10.38
2019-04-04T21:48:22.308Z,10.30
2019-04-04T21:50:50.866Z,10.47
2019-04-04T21:53:19.521Z,10.14
2019-04-04T21:55:48.265Z,9.99
2019-04-04T21:58:16.844Z,9.84
2019-04-04T22:00:45.891Z,9.72
2019-04-04T22:03:14.744Z,9.68
2019-04-04T22:05:43.408Z,9.55
2019-04-04T22:08:12.051Z,9.56
2019-04-04T22:10:40.827Z,9.53
2019-04-04T22:13:10.092Z,9.34
2019-04-04T22:15:38.751Z,9.83
2019-04-04T22:18:07.329Z,9.95
2019-04-04T22:20:35.983Z,9.90
2019-04-04T22:23:04.524Z,9.63
2019-04-04T22:25:33.091Z,9.50
2019-04-04T22:28:01.658Z,9.42
2019-04-04T22:30:30.342Z,9.59
2019-04-04T22:33:01.687Z,9.78
2019-04-04T22:35:29.347Z,9.52
2019-04-04T22:37:58.110Z,9.22
2019-04-04T22:40:26.668Z,9.21
2019-04-04T22:42:55.346Z,9.24
2019-04-04T22:45:24.018Z,9.38
2019-04-04T22:47:52.678Z,9.53
2019-04-04T22:50:21.249Z,9.38
2019-04-04T22:52:49.920Z,9.16
2019-04-04T22:55:18.499Z,9.20
2019-04-04T22:57:47.266Z,9.11
2019-04-04T23:00:16.114Z,8.96
2019-04-04T23:02:44.878Z,9.33
2019-04-04T23:05:13.740Z,9.09
2019-04-04T23:07:42.471Z,9.31
2019-04-04T23:10:11.140Z,9.14
2019-04-04T23:12:39.800Z,9.04
2019-04-04T23:15:08.974Z,9.33
2019-04-04T23:17:37.526Z,9.25
2019-04-04T23:20:07.575Z,9.25
2019-04-04T23:22:36.150Z,9.43
2019-04-04T23:25:05.718Z,9.25
2019-04-04T23:27:34.591Z,9.32
2019-04-04T23:30:03.705Z,9.56
2019-04-04T23:32:32.594Z,9.14
2019-04-04T23:35:01.227Z,9.16
2019-04-04T23:37:29.970Z,9.45
2019-04-04T23:39:58.528Z,9.56
2019-04-04T23:42:27.307Z,9.25
2019-04-04T23:45:01.318Z,9.24
2019-04-04T23:47:26.296Z,9.30
2019-04-04T23:49:54.951Z,9.59
2019-04-04T23:52:23.480Z,8.44
2019-04-04T23:54:52.278Z,8.91
2019-04-04T23:57:20.919Z,9.23
2019-04-04T23:59:49.584Z,9.27
